Time;durP1;ratioP1;P1;durP2;ratioP2;P2;SDS_P1;SDS_P2;PMS_P1;PMS_P2;Temp;Humidity;BMP_temperature;BMP_pressure;BME280_temperature;BME280_humidity;BME280_pressure;Samples;Min_cycle;Max_cycle;Signal;HPM_P1;HPM_P2
2021/09/27 00:01:43;;;;;;;8.90;5.97;;;;;;;13.53;100.00;95089.84;10241850;28;20274;-71
2021/09/27 00:06:43;;;;;;;11.40;5.13;;;;;;;13.57;100.00;95091.69;10237222;28;20698;-74
2021/09/27 00:11:43;;;;;;;13.47;5.40;;;;;;;13.59;100.00;95100.31;10237920;29;20283;-69
2021/09/27 00:16:44;;;;;;;7.57;5.67;;;;;;;13.52;100.00;95101.72;10219355;28;20806;-69
2021/09/27 00:21:44;;;;;;;6.68;5.75;;;;;;;13.55;100.00;95103.84;10229392;28;20299;-75
2021/09/27 00:26:45;;;;;;;8.20;6.22;;;;;;;13.53;100.00;95096.03;10237127;28;20031;-70
2021/09/27 00:31:46;;;;;;;14.90;6.18;;;;;;;13.68;100.00;95101.31;10201578;28;20047;-68
2021/09/27 00:36:46;;;;;;;8.65;5.68;;;;;;;13.72;100.00;95093.47;10208682;29;20394;-72
2021/09/27 00:41:47;;;;;;;13.35;6.95;;;;;;;13.63;100.00;95087.88;10237185;28;20029;-67
2021/09/27 00:46:47;;;;;;;7.53;5.38;;;;;;;13.76;100.00;95083.69;10251915;28;20033;-70
2021/09/27 00:51:48;;;;;;;8.60;5.55;;;;;;;13.79;100.00;95077.72;10236256;28;20050;-71
2021/09/27 00:57:03;;;;;;;7.43;4.47;;;;;;;13.81;100.00;95074.72;10196351;28;20074;-72
2021/09/27 01:02:03;;;;;;;10.13;4.35;;;;;;;13.90;100.00;95067.63;10193807;29;20111;-71
2021/09/27 01:07:16;;;;;;;5.18;4.55;;;;;;;13.92;100.00;95061.94;10206144;29;20399;-72
2021/09/27 01:12:34;;;;;;;8.70;4.65;;;;;;;13.93;100.00;95063.53;10208708;29;20122;-72
2021/09/27 01:17:37;;;;;;;20.83;5.23;;;;;;;13.93;100.00;95064.34;10209630;29;20036;-68
2021/09/27 01:23:19;;;;;;;6.03;4.40;;;;;;;13.85;100.00;95056.84;10209364;29;20052;-71
2021/09/27 01:28:58;;;;;;;5.78;4.45;;;;;;;13.88;100.00;95053.56;10209764;29;20047;-70
2021/09/27 01:34:24;;;;;;;6.72;4.57;;;;;;;13.73;100.00;95051.03;10214588;29;20079;-70
2021/09/27 01:39:50;;;;;;;7.78;5.18;;;;;;;13.70;100.00;95052.41;10209417;29;20036;-70
2021/09/27 01:45:05;;;;;;;7.35;4.82;;;;;;;13.68;100.00;95043.78;10210104;29;20036;-68
2021/09/27 01:50:37;;;;;;;8.85;4.45;;;;;;;13.62;100.00;95048.44;10209338;29;20512;-68
2021/09/27 01:55:48;;;;;;;6.68;4.43;;;;;;;13.64;100.00;95053.56;10223502;28;20043;-72
2021/09/27 02:01:02;;;;;;;5.95;4.97;;;;;;;13.68;100.00;95055.38;10248901;28;20035;-74
2021/09/27 02:06:17;;;;;;;9.65;4.43;;;;;;;13.66;100.00;95056.75;10226084;28;20039;-71
2021/09/27 02:11:25;;;;;;;7.88;4.60;;;;;;;13.56;100.00;95052.25;10224994;28;20032;-75
2021/09/27 02:16:45;;;;;;;;;;;;;;;13.57;100.00;95050.38;10226986;28;20615;-72
2021/09/27 02:21:49;;;;;;;10.25;5.05;;;;;;;13.47;100.00;95049.38;10241684;28;19933;-70
2021/09/27 02:26:50;;;;;;;7.38;5.05;;;;;;;13.45;100.00;95045.34;10241608;28;20035;-72
2021/09/27 02:32:15;;;;;;;10.02;4.95;;;;;;;13.40;100.00;95062.41;10217299;28;20032;-67
2021/09/27 02:37:35;;;;;;;8.48;5.45;;;;;;;13.29;100.00;95053.53;10217184;28;20478;-75
2021/09/27 02:42:43;;;;;;;6.25;4.45;;;;;;;13.22;100.00;95044.16;10202445;29;20438;-72
2021/09/27 02:47:46;;;;;;;;;;;;;;;13.12;100.00;95042.34;10237509;28;20042;-67
2021/09/27 02:52:47;;;;;;;14.82;5.47;;;;;;;12.90;100.00;95050.88;10233682;28;20050;-73
2021/09/27 02:57:57;;;;;;;7.45;5.00;;;;;;;12.99;100.00;95063.47;10217344;28;20036;-71
2021/09/27 03:03:10;;;;;;;8.10;5.15;;;;;;;12.99;100.00;95054.56;10217405;29;20032;-72
2021/09/27 03:08:13;;;;;;;12.65;5.57;;;;;;;12.97;100.00;95051.34;10216598;28;20482;-69
2021/09/27 03:13:25;;;;;;;7.03;4.93;;;;;;;12.98;100.00;95053.78;10216140;28;20023;-72
2021/09/27 03:19:13;;;;;;;12.77;5.10;;;;;;;12.94;100.00;95062.72;10199892;29;20048;-70
2021/09/27 03:24:35;;;;;;;8.43;6.43;;;;;;;12.81;100.00;95059.56;10208839;28;20122;-67
2021/09/27 03:29:57;;;;;;;12.10;5.32;;;;;;;12.76;100.00;95053.38;10224448;29;20043;-72
2021/09/27 03:35:03;;;;;;;8.90;6.13;;;;;;;12.69;100.00;95055.59;10239013;28;20107;-74
2021/09/27 03:40:04;;;;;;;9.63;5.47;;;;;;;12.48;100.00;95044.91;10239432;28;20043;-75
2021/09/27 03:45:11;;;;;;;7.83;6.20;;;;;;;12.30;100.00;95040.94;10222430;28;20035;-74
2021/09/27 03:50:27;;;;;;;8.45;5.88;;;;;;;12.24;100.00;95033.97;10215925;29;20346;-75
2021/09/27 03:55:35;;;;;;;9.13;5.40;;;;;;;12.03;100.00;95025.13;10212697;29;20037;-76
2021/09/27 04:00:47;;;;;;;11.48;5.82;;;;;;;11.88;100.00;95021.38;10238754;28;20059;-72
2021/09/27 04:06:06;;;;;;;7.93;5.68;;;;;;;11.74;100.00;95023.84;10239184;28;20042;-71
2021/09/27 04:11:26;;;;;;;7.50;5.22;;;;;;;11.71;100.00;95016.31;10237095;28;20406;-70
2021/09/27 04:16:51;;;;;;;7.53;5.70;;;;;;;11.85;100.00;95023.84;10237326;28;20092;-71
2021/09/27 04:21:54;;;;;;;10.13;6.32;;;;;;;11.88;100.00;95023.28;10217007;28;20057;-68
2021/09/27 04:27:26;;;;;;;7.68;5.50;;;;;;;11.99;100.00;95032.97;10211740;29;20470;-73
2021/09/27 04:32:42;;;;;;;8.10;5.72;;;;;;;12.08;100.00;95041.28;10236767;28;20135;-74
2021/09/27 04:37:46;;;;;;;11.15;8.13;;;;;;;12.26;100.00;95056.03;10237319;28;20163;-68
2021/09/27 04:42:46;;;;;;;10.32;6.47;;;;;;;12.43;100.00;95051.13;10216437;28;20434;-74
2021/09/27 04:47:46;;;;;;;15.40;7.07;;;;;;;12.47;100.00;95043.28;10211681;29;20039;-73
2021/09/27 04:52:59;;;;;;;11.10;5.90;;;;;;;12.62;100.00;95043.19;10197909;29;20028;-69
2021/09/27 04:58:12;;;;;;;9.73;6.78;;;;;;;12.74;100.00;95042.06;10212643;28;20035;-69
2021/09/27 05:03:21;;;;;;;10.63;7.03;;;;;;;12.93;100.00;95056.50;10212194;28;20031;-71
2021/09/27 05:08:34;;;;;;;8.05;5.82;;;;;;;13.12;100.00;95058.56;10210840;29;20028;-75
2021/09/27 05:13:58;;;;;;;9.45;6.50;;;;;;;13.22;100.00;95068.47;10211512;28;20038;-76
2021/09/27 05:19:21;;;;;;;13.15;7.03;;;;;;;13.33;100.00;95073.50;10211203;28;20443;-73
2021/09/27 05:24:38;;;;;;;16.40;6.97;;;;;;;13.47;100.00;95087.19;10158065;29;20494;-72
2021/09/27 05:29:54;;;;;;;10.50;6.38;;;;;;;13.55;100.00;95079.56;10180554;29;20118;-73
2021/09/27 05:35:13;;;;;;;14.73;6.13;;;;;;;13.53;100.00;95071.75;10235009;28;20027;-76
2021/09/27 05:40:25;;;;;;;15.38;7.38;;;;;;;13.43;100.00;95086.13;10202582;28;20110;-72
2021/09/27 05:45:30;;;;;;;13.80;8.27;;;;;;;13.54;100.00;95073.34;10195066;29;20561;-72
2021/09/27 05:50:39;;;;;;;20.17;8.35;;;;;;;13.78;100.00;95076.09;10212151;29;20086;-69
2021/09/27 05:55:48;;;;;;;15.73;7.80;;;;;;;13.96;100.00;95084.59;10218723;28;20078;-72
2021/09/27 06:01:13;;;;;;;15.70;9.75;;;;;;;14.13;100.00;95078.72;10218662;28;20516;-72
2021/09/27 06:06:28;;;;;;;20.10;8.73;;;;;;;14.34;100.00;95079.31;10231212;28;20477;-72
2021/09/27 06:11:57;;;;;;;23.00;9.57;;;;;;;14.81;100.00;95072.25;10241684;28;20037;-73
2021/09/27 06:17:35;;;;;;;16.23;8.93;;;;;;;15.27;100.00;95059.16;10221550;29;20047;-72
2021/09/27 06:22:52;;;;;;;24.33;11.13;;;;;;;15.67;100.00;95062.28;10218211;28;20087;-74
2021/09/27 06:28:11;;;;;;;19.55;8.30;;;;;;;16.11;100.00;95074.53;10201887;29;20433;-74
2021/09/27 06:33:43;;;;;;;13.65;8.93;;;;;;;16.64;100.00;95059.66;10212006;28;20127;-76
2021/09/27 06:38:44;;;;;;;20.75;8.63;;;;;;;17.30;100.00;95055.81;10216594;29;20602;-73
2021/09/27 06:43:44;;;;;;;16.58;6.78;;;;;;;17.91;100.00;95069.84;10201292;28;20153;-74
2021/09/27 06:48:46;;;;;;;10.02;4.68;;;;;;;18.35;100.00;95065.41;10173438;29;20098;-69
2021/09/27 06:53:47;;;;;;;14.63;6.50;;;;;;;19.11;100.00;95075.22;10191539;29;20106;-72
2021/09/27 06:58:47;;;;;;;6.03;4.63;;;;;;;19.49;93.95;95076.50;10222300;28;20460;-76
2021/09/27 07:03:47;;;;;;;8.97;4.73;;;;;;;19.55;91.01;95067.06;10252641;28;20032;-70
2021/09/27 07:08:48;;;;;;;8.30;4.73;;;;;;;20.62;80.86;95059.06;10200762;29;20279;-72
2021/09/27 07:13:49;;;;;;;7.53;4.80;;;;;;;21.12;76.25;95062.16;10190918;29;20027;-73
2021/09/27 07:18:49;;;;;;;7.45;4.45;;;;;;;21.13;82.31;95053.63;10216403;28;20063;-75
2021/09/27 07:23:50;;;;;;;14.33;5.63;;;;;;;21.55;80.74;95049.31;10201375;29;20031;-71
2021/09/27 07:28:53;;;;;;;21.60;5.93;;;;;;;21.44;79.53;95046.94;10202615;28;20039;-73
2021/09/27 07:33:54;;;;;;;17.92;6.07;;;;;;;21.87;81.32;95041.44;10199201;29;20106;-72
2021/09/27 07:38:55;;;;;;;15.10;6.45;;;;;;;22.66;66.49;95033.91;10231993;28;20109;-75
2021/09/27 07:43:56;;;;;;;14.82;6.50;;;;;;;23.34;63.11;95026.94;10224697;28;20651;-75
2021/09/27 07:48:56;;;;;;;15.02;6.63;;;;;;;24.85;54.97;95012.78;10239560;28;20102;-68
2021/09/27 07:53:57;;;;;;;9.20;5.43;;;;;;;26.61;50.17;95032.75;10225077;28;20037;-71
2021/09/27 07:58:57;;;;;;;15.02;5.93;;;;;;;26.91;47.08;95020.22;10221976;28;20298;-70
2021/09/27 08:03:58;;;;;;;18.30;6.90;;;;;;;25.86;47.66;95021.19;10211518;29;20032;-75
2021/09/27 08:08:58;;;;;;;11.67;6.23;;;;;;;25.29;51.19;95025.53;10190055;28;20546;-74
2021/09/27 08:13:59;;;;;;;18.73;7.53;;;;;;;25.13;52.35;95025.56;10188240;28;20051;-71
2021/09/27 08:19:00;;;;;;;27.52;8.43;;;;;;;27.10;48.34;95017.34;10184979;29;20308;-78
2021/09/27 08:24:00;;;;;;;48.58;8.25;;;;;;;28.34;44.98;95014.03;10212452;28;20044;-69
2021/09/27 08:29:01;;;;;;;21.65;7.35;;;;;;;28.45;43.56;95001.91;10227180;29;20118;-69
2021/09/27 08:34:02;;;;;;;22.75;6.47;;;;;;;27.24;45.01;95013.19;10205323;28;20050;-71
2021/09/27 08:39:03;;;;;;;27.42;7.22;;;;;;;25.65;48.33;95010.56;10196458;29;20466;-71
2021/09/27 08:44:10;;;;;;;21.38;6.30;;;;;;;24.89;50.75;95008.16;10201574;28;20032;-72
2021/09/27 08:49:23;;;;;;;18.15;6.78;;;;;;;25.20;54.60;95000.97;10213112;29;20036;-68
2021/09/27 08:54:29;;;;;;;16.45;4.97;;;;;;;25.18;50.60;94989.53;10243758;28;20031;-73
2021/09/27 09:00:01;;;;;;;15.48;5.47;;;;;;;25.38;52.23;94990.34;10235979;28;20445;-73
2021/09/27 09:05:10;;;;;;;9.30;4.25;;;;;;;25.13;49.56;94978.81;10236861;29;20114;-74
2021/09/27 09:10:15;;;;;;;11.48;5.47;;;;;;;25.70;48.83;94974.50;10237085;28;20099;-69
2021/09/27 09:15:28;;;;;;;14.30;5.00;;;;;;;25.40;50.44;94980.59;10219922;29;20033;-74
2021/09/27 09:20:39;;;;;;;12.40;5.20;;;;;;;25.11;52.79;94984.66;10235355;28;20051;-75
2021/09/27 09:25:40;;;;;;;13.38;5.90;;;;;;;25.21;53.55;94969.56;10239346;28;20062;-73
2021/09/27 09:31:23;;;;;;;16.02;5.80;;;;;;;26.09;49.59;94959.84;10238362;28;20027;-74
2021/09/27 09:36:32;;;;;;;20.42;5.57;;;;;;;26.69;46.76;94950.13;10262105;28;20034;-74
2021/09/27 09:41:47;;;;;;;8.73;4.68;;;;;;;27.16;44.98;94937.00;10262902;28;20047;-72
2021/09/27 09:47:09;;;;;;;13.18;5.18;;;;;;;27.51;44.92;94931.13;10244008;28;20094;-75
2021/09/27 09:52:10;;;;;;;11.60;5.18;;;;;;;29.56;43.37;94933.78;10243102;28;20037;-75
2021/09/27 09:57:28;;;;;;;13.52;5.13;;;;;;;31.67;37.65;94929.22;10242221;28;20831;-73
2021/09/27 10:02:29;;;;;;;20.30;4.80;;;;;;;33.80;35.18;94918.91;10243117;28;20110;-73
2021/09/27 10:07:41;;;;;;;10.70;4.55;;;;;;;33.17;34.25;94919.25;10225943;29;20059;-73
2021/09/27 10:12:51;;;;;;;12.73;4.50;;;;;;;33.73;34.14;94918.97;10227230;29;20055;-75
2021/09/27 10:18:03;;;;;;;7.20;4.70;;;;;;;34.44;32.69;94913.56;10246530;28;20027;-69
2021/09/27 10:23:11;;;;;;;8.50;3.83;;;;;;;35.99;29.66;94895.75;10205209;28;20131;-74
2021/09/27 10:28:20;;;;;;;13.85;4.35;;;;;;;37.65;28.63;94888.63;10217786;29;20474;-69
2021/09/27 10:33:33;;;;;;;13.85;3.42;;;;;;;38.62;26.75;94879.94;10217359;28;20036;-70
2021/09/27 10:38:42;;;;;;;7.15;3.05;;;;;;;39.13;24.56;94876.16;10253011;28;20031;-72
2021/09/27 10:43:44;;;;;;;12.40;3.55;;;;;;;38.08;25.35;94860.03;10242506;28;20109;-75
2021/09/27 10:48:49;;;;;;;5.90;2.70;;;;;;;38.57;24.69;94850.41;10240689;28;20121;-70
2021/09/27 10:53:55;;;;;;;6.85;2.53;;;;;;;38.76;23.87;94842.94;10233116;28;20415;-69
2021/09/27 10:59:03;;;;;;;7.47;2.65;;;;;;;39.34;23.58;94838.06;10224502;28;20035;-69
2021/09/27 11:04:14;;;;;;;5.25;2.63;;;;;;;39.93;23.76;94828.97;10239841;28;20501;-68
2021/09/27 11:09:30;;;;;;;5.55;2.53;;;;;;;40.70;21.15;94819.75;10212217;28;20122;-74
2021/09/27 11:14:37;;;;;;;5.90;2.47;;;;;;;40.56;21.67;94809.13;10200108;29;20653;-70
2021/09/27 11:19:42;;;;;;;4.28;2.58;;;;;;;40.51;22.50;94804.09;10199477;29;20196;-72
2021/09/27 11:24:42;;;;;;;8.67;2.60;;;;;;;37.75;24.10;94795.00;10212837;29;20035;-72
2021/09/27 11:29:46;;;;;;;8.47;2.90;;;;;;;34.88;27.18;94790.72;10238673;28;20057;-73
2021/09/27 11:35:18;;;;;;;9.55;2.60;;;;;;;32.94;29.23;94789.84;10238354;28;20090;-75
2021/09/27 11:40:21;;;;;;;6.85;3.17;;;;;;;32.04;30.19;94785.25;10238736;28;20454;-72
2021/09/27 11:45:48;;;;;;;8.80;2.92;;;;;;;30.96;31.09;94781.19;10239885;28;20382;-69
2021/09/27 11:51:04;;;;;;;;;;;;;;;29.98;31.89;94780.69;10233234;28;20043;-70
2021/09/27 11:56:41;;;;;;;5.40;3.33;;;;;;;29.47;33.13;94784.63;10238364;29;19957;-70
2021/09/27 12:01:59;;;;;;;10.90;3.45;;;;;;;29.34;33.16;94789.75;10228521;29;20587;-73
2021/09/27 12:07:03;;;;;;;9.77;3.88;;;;;;;29.22;33.91;94784.56;10254165;28;20085;-75
2021/09/27 12:12:06;;;;;;;10.70;3.45;;;;;;;29.12;34.76;94775.88;10239707;29;20032;-77
2021/09/27 12:17:12;;;;;;;8.20;3.58;;;;;;;28.96;35.50;94773.44;10237621;28;20490;-71
2021/09/27 12:22:19;;;;;;;5.68;3.53;;;;;;;28.86;35.87;94767.88;10236911;28;20079;-73
2021/09/27 12:27:26;;;;;;;10.55;3.95;;;;;;;28.56;35.79;94769.72;10236582;28;20034;-75
2021/09/27 12:32:36;;;;;;;9.57;4.20;;;;;;;28.41;35.54;94762.53;10225738;28;20099;-73
2021/09/27 12:37:40;;;;;;;5.30;3.90;;;;;;;28.42;37.17;94756.63;10197800;29;20063;-72
2021/09/27 12:42:52;;;;;;;10.88;3.28;;;;;;;27.83;37.82;94753.13;10213028;29;20027;-69
2021/09/27 12:47:54;;;;;;;14.30;4.05;;;;;;;27.96;38.30;94757.13;10198651;29;20150;-69
2021/09/27 12:53:00;;;;;;;9.10;3.42;;;;;;;27.88;37.41;94748.03;10242593;28;20486;-70
2021/09/27 12:58:05;;;;;;;15.57;4.00;;;;;;;27.79;37.26;94742.81;10236706;28;20242;-72
2021/09/27 13:03:08;;;;;;;10.38;3.45;;;;;;;27.77;36.91;94739.66;10235742;28;20031;-70
2021/09/27 13:08:20;;;;;;;11.30;4.68;;;;;;;27.84;37.74;94743.63;10252626;28;20039;-78
2021/09/27 13:13:33;;;;;;;10.77;3.92;;;;;;;27.94;38.20;94732.66;10251398;28;20508;-74
2021/09/27 13:18:33;;;;;;;11.93;4.15;;;;;;;27.73;37.51;94738.06;10234909;28;20059;-71
2021/09/27 13:24:14;;;;;;;14.40;4.00;;;;;;;27.47;38.51;94731.53;10227648;28;20035;-72
2021/09/27 13:29:18;;;;;;;11.75;4.85;;;;;;;27.56;38.96;94731.22;10195686;29;20095;-72
2021/09/27 13:34:30;;;;;;;13.35;4.22;;;;;;;27.67;39.19;94715.53;10229315;28;20031;-72
2021/09/27 13:39:38;;;;;;;8.38;3.17;;;;;;;27.53;36.58;94716.22;10235502;28;20042;-75
2021/09/27 13:44:47;;;;;;;15.40;4.10;;;;;;;27.49;36.77;94707.13;10233925;28;20102;-76
2021/09/27 13:49:47;;;;;;;5.55;4.00;;;;;;;27.39;36.03;94707.81;10234674;28;20031;-75
2021/09/27 13:54:48;;;;;;;12.93;3.87;;;;;;;27.20;35.56;94706.88;10203638;28;20032;-75
2021/09/27 13:59:49;;;;;;;10.18;3.83;;;;;;;27.08;35.95;94701.63;10195772;29;20280;-76
2021/09/27 14:04:49;;;;;;;16.42;4.80;;;;;;;26.87;36.09;94697.50;10196181;29;20040;-76
2021/09/27 14:09:50;;;;;;;11.70;4.78;;;;;;;26.82;36.99;94681.31;10211157;28;20055;-70
2021/09/27 14:14:51;;;;;;;12.05;3.78;;;;;;;26.72;37.35;94685.56;10216629;28;20418;-70
2021/09/27 14:19:51;;;;;;;18.77;4.30;;;;;;;26.62;36.60;94694.47;10251000;28;20052;-69
2021/09/27 14:24:52;;;;;;;14.13;4.35;;;;;;;26.76;36.66;94694.66;10217287;28;20669;-70
2021/09/27 14:29:53;;;;;;;15.57;6.07;;;;;;;26.97;36.59;94693.25;10225686;29;20031;-70
2021/09/27 14:34:54;;;;;;;12.90;4.32;;;;;;;27.01;36.02;94685.81;10202641;29;20028;-75
2021/09/27 14:39:55;;;;;;;16.38;5.68;;;;;;;26.91;36.61;94686.50;10203136;29;20504;-76
2021/09/27 14:44:55;;;;;;;17.65;4.15;;;;;;;26.66;35.98;94683.47;10216837;29;20030;-75
2021/09/27 14:49:58;;;;;;;19.00;4.10;;;;;;;26.53;35.99;94685.72;10201689;29;20031;-74
2021/09/27 14:54:58;;;;;;;15.32;4.60;;;;;;;26.38;36.37;94676.50;10216761;28;20291;-69
2021/09/27 14:59:59;;;;;;;16.30;4.27;;;;;;;26.13;36.72;94678.94;10236624;28;20102;-74
2021/09/27 15:04:59;;;;;;;14.30;4.55;;;;;;;26.02;36.71;94679.59;10239896;28;20788;-72
2021/09/27 15:10:00;;;;;;;17.13;5.60;;;;;;;25.93;37.27;94676.31;10208377;28;20489;-71
2021/09/27 15:15:03;;;;;;;20.37;5.57;;;;;;;25.87;37.38;94680.53;10183466;29;20374;-70
2021/09/27 15:20:06;;;;;;;18.92;4.75;;;;;;;25.73;37.47;94670.94;10192240;29;20134;-71
2021/09/27 15:25:09;;;;;;;14.30;4.32;;;;;;;25.52;36.72;94676.13;10198462;29;20031;-74
2021/09/27 15:30:10;;;;;;;17.50;4.40;;;;;;;25.42;37.15;94683.06;10183540;29;20654;-74
2021/09/27 15:35:11;;;;;;;21.90;4.97;;;;;;;25.30;37.69;94686.78;10214849;29;20517;-74
2021/09/27 15:40:12;;;;;;;8.27;3.85;;;;;;;25.11;42.50;94703.38;10214992;28;20508;-72
2021/09/27 15:45:13;;;;;;;6.22;4.43;;;;;;;24.96;44.57;94708.63;10200869;29;20024;-73
2021/09/27 15:50:14;;;;;;;7.28;3.50;;;;;;;24.42;47.64;94718.59;10207753;29;20036;-76
2021/09/27 15:55:15;;;;;;;11.18;3.35;;;;;;;23.97;50.54;94712.56;10199300;28;20039;-73
2021/09/27 16:00:16;;;;;;;10.63;4.40;;;;;;;23.61;52.46;94722.75;10204285;28;20032;-73
2021/09/27 16:05:16;;;;;;;12.45;3.97;;;;;;;23.36;54.41;94722.19;10222830;28;20039;-69
2021/09/27 16:10:17;;;;;;;7.82;4.25;;;;;;;23.14;55.91;94718.13;10214244;28;20524;-71
2021/09/27 16:15:17;;;;;;;9.07;3.80;;;;;;;22.97;57.71;94724.69;10207544;29;20094;-74
2021/09/27 16:20:18;;;;;;;5.57;4.13;;;;;;;22.74;60.58;94732.75;10236260;28;20429;-74
2021/09/27 16:25:18;;;;;;;8.45;4.15;;;;;;;22.63;62.42;94732.44;10236752;28;20271;-68
2021/09/27 16:30:19;;;;;;;9.75;4.00;;;;;;;22.57;63.38;94733.84;10220689;28;20130;-75
2021/09/27 16:35:19;;;;;;;16.33;4.93;;;;;;;22.55;64.06;94733.41;10252266;28;20090;-73
2021/09/27 16:40:20;;;;;;;8.07;4.70;;;;;;;22.27;64.92;94734.97;10211753;28;20035;-70
2021/09/27 16:45:22;;;;;;;10.88;4.57;;;;;;;22.14;65.66;94738.91;10196113;29;20287;-73
2021/09/27 16:50:23;;;;;;;9.05;4.90;;;;;;;22.06;66.87;94740.66;10212538;28;20035;-71
2021/09/27 16:55:24;;;;;;;8.50;4.15;;;;;;;22.06;67.19;94732.44;10212564;28;20028;-73
2021/09/27 17:00:25;;;;;;;10.35;4.25;;;;;;;21.94;68.98;94730.50;10211679;29;20039;-72
2021/09/27 17:05:26;;;;;;;14.27;5.20;;;;;;;21.87;70.96;94743.97;10207990;28;20030;-69
2021/09/27 17:10:27;;;;;;;13.48;5.38;;;;;;;21.77;72.99;94747.19;10212079;29;20070;-69
2021/09/27 17:20:50;;;;;;;12.75;5.80;;;;;;;21.48;79.53;94757.22;10194521;29;20056;-72
2021/09/27 17:25:51;;;;;;;17.80;6.00;;;;;;;21.49;81.89;94756.88;10193135;29;20072;-74
2021/09/27 17:31:18;;;;;;;15.55;6.88;;;;;;;21.40;83.51;94749.94;10209765;29;20534;-69
2021/09/27 17:36:19;;;;;;;18.25;7.38;;;;;;;21.17;85.83;94764.84;10207160;29;20044;-70
2021/09/27 17:41:20;;;;;;;16.05;6.75;;;;;;;21.02;87.94;94772.91;10194461;29;20050;-71
2021/09/27 17:46:21;;;;;;;22.83;7.07;;;;;;;20.88;90.76;94779.47;10209981;29;20031;-66
2021/09/27 17:51:23;;;;;;;17.63;7.60;;;;;;;20.77;93.33;94781.81;10215739;28;20039;-68
2021/09/27 17:56:23;;;;;;;9.60;5.35;;;;;;;20.43;96.15;94785.69;10201332;29;20067;-72
2021/09/27 18:01:24;;;;;;;15.93;6.17;;;;;;;20.40;96.53;94789.06;10216789;29;20636;-68
2021/09/27 18:06:24;;;;;;;10.38;5.55;;;;;;;20.21;98.19;94795.78;10217656;28;20286;-69
2021/09/27 18:11:25;;;;;;;13.43;5.95;;;;;;;20.12;98.59;94793.13;10201376;29;20123;-71
2021/09/27 18:16:25;;;;;;;10.90;5.03;;;;;;;19.95;100.00;94794.06;10201753;29;20510;-72
2021/09/27 18:21:26;;;;;;;10.50;5.80;;;;;;;19.87;100.00;94792.19;10246790;22;20541;-73
2021/09/27 18:26:27;;;;;;;9.10;5.68;;;;;;;19.70;100.00;94801.22;10193774;28;20032;-71
2021/09/27 18:31:27;;;;;;;11.05;5.15;;;;;;;19.67;100.00;94807.34;10164390;29;20032;-70
2021/09/27 18:36:28;;;;;;;12.50;5.80;;;;;;;19.60;100.00;94804.34;10162181;29;20425;-70
2021/09/27 18:41:31;;;;;;;9.68;5.05;;;;;;;19.58;100.00;94801.16;10180899;29;20043;-72
2021/09/27 18:46:32;;;;;;;9.63;5.28;;;;;;;19.59;100.00;94809.00;10188374;29;20028;-70
2021/09/27 18:51:33;;;;;;;11.85;5.80;;;;;;;19.52;100.00;94803.28;10161268;29;20032;-69
2021/09/27 18:56:36;;;;;;;13.02;6.78;;;;;;;19.45;100.00;94794.78;10160771;29;20039;-72
2021/09/27 19:01:36;;;;;;;9.20;5.13;;;;;;;19.35;100.00;94793.22;10157794;29;20031;-73
2021/09/27 19:06:37;;;;;;;10.43;5.22;;;;;;;19.35;100.00;94798.69;10160351;29;20028;-68
2021/09/27 19:11:38;;;;;;;11.23;5.63;;;;;;;19.28;100.00;94793.75;10160268;29;20024;-76
2021/09/27 19:16:39;;;;;;;8.57;5.40;;;;;;;19.21;100.00;94807.06;10147956;29;20470;-67
2021/09/27 19:21:39;;;;;;;7.47;5.37;;;;;;;19.07;100.00;94799.09;10121789;29;20092;-70
2021/09/27 19:26:40;;;;;;;12.73;5.78;;;;;;;18.92;100.00;94795.00;10141846;29;20518;-73
2021/09/27 19:31:42;;;;;;;10.93;5.78;;;;;;;18.91;100.00;94796.13;10160159;29;20016;-74
2021/09/27 19:36:43;;;;;;;15.23;5.80;;;;;;;18.78;100.00;94803.34;10161376;29;20415;-70
2021/09/27 19:41:43;;;;;;;8.47;5.23;;;;;;;18.74;100.00;94807.00;10168773;29;20024;-69
2021/09/27 19:46:43;;;;;;;10.47;5.73;;;;;;;18.57;100.00;94811.38;10178550;29;20734;-73
2021/09/27 19:51:44;;;;;;;9.37;5.60;;;;;;;18.51;100.00;94809.94;10177890;29;20738;-70
2021/09/27 19:56:44;;;;;;;8.35;5.72;;;;;;;18.60;100.00;94823.53;10169826;29;20039;-73
2021/09/27 20:01:45;;;;;;;7.97;5.93;;;;;;;18.56;100.00;94817.94;10158917;29;20024;-73
2021/09/27 20:06:45;;;;;;;12.07;6.03;;;;;;;18.62;100.00;94819.38;10159184;29;20379;-69
2021/09/27 20:11:46;;;;;;;10.85;6.38;;;;;;;18.68;100.00;94819.22;10123146;29;20048;-68
2021/09/27 20:16:46;;;;;;;10.50;5.70;;;;;;;18.65;100.00;94822.59;10118550;29;20029;-72
2021/09/27 20:21:48;;;;;;;11.80;5.80;;;;;;;18.64;100.00;94902.63;10119522;29;20060;-69
2021/09/27 20:26:49;;;;;;;16.27;7.78;;;;;;;18.24;100.00;94933.50;10110438;29;20107;-73
2021/09/27 20:31:49;;;;;;;14.43;7.57;;;;;;;18.42;100.00;94909.84;10158081;29;20127;-70
2021/09/27 20:36:50;;;;;;;16.73;7.10;;;;;;;18.50;100.00;94944.41;10157926;29;20280;-69
2021/09/27 20:41:51;;;;;;;22.90;9.43;;;;;;;18.13;100.00;94973.78;10156929;29;21073;-72
2021/09/27 20:46:51;;;;;;;20.53;11.37;;;;;;;17.45;100.00;94978.56;10171055;29;20031;-72
2021/09/27 20:51:51;;;;;;;24.50;12.50;;;;;;;16.97;100.00;94982.69;10154924;29;20269;-72
2021/09/27 20:56:52;;;;;;;20.08;13.00;;;;;;;16.30;100.00;94995.00;10153771;29;20283;-70
2021/09/27 21:01:52;;;;;;;24.65;15.07;;;;;;;16.36;100.00;94988.38;10154870;29;20035;-71
2021/09/27 21:06:53;;;;;;;22.50;15.20;;;;;;;15.84;100.00;94994.81;10157244;29;20110;-72
2021/09/27 21:11:53;;;;;;;23.60;15.27;;;;;;;15.53;100.00;95016.19;10156605;29;20494;-68
2021/09/27 21:16:54;;;;;;;26.47;14.90;;;;;;;15.56;100.00;95010.19;10173000;29;20482;-71
2021/09/27 21:21:54;;;;;;;26.33;13.77;;;;;;;15.63;100.00;94993.53;10176162;29;20379;-72
2021/09/27 21:26:54;;;;;;;24.02;16.10;;;;;;;15.54;100.00;95001.56;10180890;29;20059;-67
2021/09/27 21:31:55;;;;;;;18.65;13.05;;;;;;;15.39;100.00;95013.44;10168790;29;20613;-72
2021/09/27 21:36:57;;;;;;;24.53;14.47;;;;;;;15.36;100.00;94997.78;10169115;29;20528;-69
2021/09/27 21:41:58;;;;;;;21.17;13.73;;;;;;;15.36;100.00;94989.66;10135797;29;20700;-75
2021/09/27 21:46:58;;;;;;;15.47;12.23;;;;;;;15.36;100.00;94986.97;10125538;29;20083;-71
2021/09/27 21:51:59;;;;;;;22.60;11.40;;;;;;;15.30;100.00;94980.03;10149556;29;20830;-71
2021/09/27 21:56:59;;;;;;;17.35;12.70;;;;;;;15.35;100.00;94969.13;10136554;29;20321;-75
2021/09/27 22:01:59;;;;;;;22.08;12.48;;;;;;;15.46;100.00;94954.31;10124852;29;20099;-68
2021/09/27 22:07:00;;;;;;;17.73;11.53;;;;;;;15.59;100.00;94938.38;10123431;29;20028;-71
2021/09/27 22:12:01;;;;;;;18.17;11.65;;;;;;;15.62;100.00;94919.59;10171236;29;20271;-68
2021/09/27 22:17:02;;;;;;;17.13;10.77;;;;;;;15.57;100.00;94906.13;10162459;29;20028;-68
2021/09/27 22:22:04;;;;;;;18.75;10.80;;;;;;;15.59;100.00;94886.91;10142256;29;20056;-69
2021/09/27 22:27:06;;;;;;;17.92;11.65;;;;;;;15.54;100.00;94885.88;10162824;29;20028;-73
2021/09/27 22:32:08;;;;;;;18.80;12.38;;;;;;;15.59;100.00;94874.16;10145330;29;20493;-68
2021/09/27 22:37:08;;;;;;;16.63;11.18;;;;;;;15.61;100.00;94873.84;10177419;29;20525;-72
2021/09/27 22:42:09;;;;;;;17.55;12.27;;;;;;;15.71;100.00;94882.56;10162744;29;20118;-68
2021/09/27 22:47:10;;;;;;;18.73;13.40;;;;;;;15.71;100.00;94884.47;10160804;29;20083;-72
2021/09/27 22:52:10;;;;;;;14.68;11.38;;;;;;;15.70;100.00;94877.47;10160096;29;20075;-72
2021/09/27 22:57:11;;;;;;;14.55;11.18;;;;;;;15.73;100.00;94868.72;10161223;29;20072;-74
2021/09/27 23:02:11;;;;;;;18.48;11.73;;;;;;;15.71;100.00;94866.31;10161029;29;20407;-72
2021/09/27 23:07:11;;;;;;;16.37;12.70;;;;;;;15.75;100.00;94871.13;10176364;29;20032;-75
2021/09/27 23:12:12;;;;;;;17.23;11.90;;;;;;;15.79;100.00;94891.91;10175960;29;20284;-72
2021/09/27 23:17:13;;;;;;;16.60;12.20;;;;;;;15.85;100.00;94879.06;10161860;29;20857;-75
2021/09/27 23:22:13;;;;;;;21.00;13.52;;;;;;;15.95;100.00;94895.13;10175476;29;20107;-72
2021/09/27 23:27:15;;;;;;;21.37;13.70;;;;;;;16.03;100.00;94899.03;10152745;29;20095;-71